createdAt,value
2018-07-28T00:02:11.926Z,25.40
2018-07-28T00:04:40.268Z,25.40
2018-07-28T00:09:36.719Z,25.30
2018-07-28T00:12:05.187Z,25.20
2018-07-28T00:14:33.532Z,25.20
2018-07-28T00:17:01.919Z,25.20
2018-07-28T00:19:30.268Z,25.20
2018-07-28T00:21:58.748Z,25.20
2018-07-28T00:24:27.173Z,25.10
2018-07-28T00:26:55.555Z,25.10
2018-07-28T00:29:23.937Z,25.10
2018-07-28T00:31:52.333Z,25.10
2018-07-28T00:34:20.685Z,25.00
2018-07-28T00:36:49.083Z,25.00
2018-07-28T00:39:17.435Z,24.90
2018-07-28T00:41:45.830Z,24.90
2018-07-28T00:44:14.209Z,24.90
2018-07-28T00:46:42.592Z,24.90
2018-07-28T00:49:10.964Z,24.90
2018-07-28T00:51:39.335Z,24.90
2018-07-28T00:54:07.715Z,24.90
2018-07-28T00:56:36.044Z,24.90
2018-07-28T00:59:04.615Z,24.90
2018-07-28T01:01:33.068Z,24.80
2018-07-28T01:04:01.461Z,24.80
2018-07-28T01:08:57.895Z,24.70
2018-07-28T01:11:26.273Z,24.70
2018-07-28T01:13:54.728Z,24.60
2018-07-28T01:16:23.061Z,24.60
2018-07-28T01:18:51.800Z,24.60
2018-07-28T01:21:20.209Z,24.60
2018-07-28T01:26:17.073Z,24.50
2018-07-28T01:28:49.718Z,24.50
2018-07-28T01:31:18.109Z,24.50
2018-07-28T01:33:46.446Z,24.50
2018-07-28T01:36:14.800Z,24.40
2018-07-28T01:38:43.250Z,24.40
2018-07-28T01:41:11.605Z,24.40
2018-07-28T01:43:40.021Z,24.40
2018-07-28T01:46:08.386Z,24.30
2018-07-28T01:48:36.772Z,24.30
2018-07-28T01:51:05.331Z,24.30
2018-07-28T01:53:33.770Z,24.30
2018-07-28T01:56:02.140Z,24.30
2018-07-28T01:58:30.545Z,24.30
2018-07-28T02:00:58.886Z,24.30
2018-07-28T02:03:27.309Z,24.30
2018-07-28T02:05:55.714Z,24.20
2018-07-28T02:08:24.191Z,24.10
2018-07-28T02:10:52.548Z,24.10
2018-07-28T02:13:21.067Z,24.10
2018-07-28T02:15:49.473Z,24.00
2018-07-28T02:18:17.811Z,24.00
2018-07-28T02:20:46.216Z,24.00
2018-07-28T02:25:42.706Z,23.90
2018-07-28T02:28:11.104Z,24.00
2018-07-28T02:30:39.572Z,23.90
2018-07-28T02:33:07.959Z,23.90
2018-07-28T02:35:36.321Z,23.90
2018-07-28T02:38:04.767Z,23.90
2018-07-28T02:40:33.139Z,23.80
2018-07-28T02:43:01.477Z,23.80
2018-07-28T02:45:29.917Z,23.80
2018-07-28T02:47:58.257Z,23.80
2018-07-28T02:50:26.663Z,23.80
2018-07-28T02:52:55.145Z,23.80
2018-07-28T02:55:23.560Z,23.80
2018-07-28T02:57:51.933Z,23.70
2018-07-28T03:00:20.578Z,23.70
2018-07-28T03:02:48.899Z,23.70
2018-07-28T03:05:17.334Z,23.60
2018-07-28T03:07:45.727Z,23.60
2018-07-28T03:10:14.989Z,23.60
2018-07-28T03:12:43.405Z,23.60
2018-07-28T03:15:28.260Z,23.50
2018-07-28T03:17:57.193Z,23.50
2018-07-28T03:20:25.905Z,23.50
2018-07-28T03:22:54.814Z,23.50
2018-07-28T03:25:23.292Z,23.40
2018-07-28T03:27:51.665Z,23.40
2018-07-28T03:30:20.044Z,23.40
2018-07-28T03:32:48.420Z,23.40
2018-07-28T03:35:16.829Z,23.40
2018-07-28T03:37:46.052Z,23.30
2018-07-28T03:40:14.476Z,23.30
2018-07-28T03:42:42.943Z,23.30
2018-07-28T03:45:11.775Z,23.20
2018-07-28T03:47:41.341Z,23.10
2018-07-28T03:50:10.064Z,23.10
2018-07-28T03:52:38.466Z,23.10
2018-07-28T03:55:07.967Z,23.00
2018-07-28T03:57:36.344Z,23.00
2018-07-28T04:00:07.592Z,23.00
2018-07-28T04:02:35.971Z,23.00
2018-07-28T04:05:05.232Z,23.00
2018-07-28T04:07:33.609Z,23.00
2018-07-28T04:10:01.986Z,22.90
2018-07-28T04:12:30.335Z,22.90
2018-07-28T04:14:58.792Z,22.90
2018-07-28T04:17:27.407Z,23.00
2018-07-28T04:19:55.824Z,23.10
2018-07-28T04:22:24.355Z,23.10
2018-07-28T04:24:53.133Z,23.10
2018-07-28T04:27:21.497Z,23.10
2018-07-28T04:29:49.968Z,23.10
2018-07-28T04:32:18.362Z,23.10
2018-07-28T04:34:46.786Z,23.00
2018-07-28T04:37:15.177Z,23.00
2018-07-28T04:39:43.661Z,23.00
2018-07-28T04:42:12.027Z,23.00
2018-07-28T04:44:40.399Z,23.00
2018-07-28T04:47:08.779Z,23.00
2018-07-28T04:49:37.191Z,23.00
2018-07-28T04:52:05.601Z,23.00
2018-07-28T04:54:33.953Z,23.10
2018-07-28T04:57:02.342Z,23.10
2018-07-28T04:59:31.008Z,23.20
2018-07-28T05:04:27.811Z,23.30
2018-07-28T05:06:56.268Z,23.30
2018-07-28T05:09:24.612Z,23.40
2018-07-28T05:11:53.834Z,23.40
2018-07-28T05:14:22.244Z,23.50
2018-07-28T05:16:50.903Z,23.50
2018-07-28T05:19:19.272Z,23.50
2018-07-28T05:21:47.724Z,23.50
2018-07-28T05:24:16.203Z,23.60
2018-07-28T05:26:44.725Z,23.60
2018-07-28T05:29:13.107Z,23.70
2018-07-28T05:31:42.486Z,23.80
2018-07-28T05:34:10.852Z,23.90
2018-07-28T05:36:40.248Z,23.90
2018-07-28T05:39:10.655Z,24.00
2018-07-28T05:41:39.139Z,24.10
2018-07-28T05:44:07.729Z,24.10
2018-07-28T05:46:36.223Z,24.20
2018-07-28T05:49:04.719Z,24.30
2018-07-28T05:51:33.107Z,24.30
2018-07-28T05:54:01.515Z,24.40
2018-07-28T05:56:29.960Z,24.60
2018-07-28T05:58:58.429Z,24.70
2018-07-28T06:03:55.708Z,25.10
2018-07-28T06:06:24.515Z,25.30
2018-07-28T06:08:52.994Z,25.40
2018-07-28T06:11:21.461Z,25.60
2018-07-28T06:13:49.840Z,25.60
2018-07-28T06:16:18.361Z,25.70
2018-07-28T06:18:47.032Z,25.80
2018-07-28T06:21:15.544Z,25.90
2018-07-28T06:23:44.016Z,26.10
2018-07-28T06:26:12.625Z,26.20
2018-07-28T06:28:41.060Z,26.40
2018-07-28T06:31:09.518Z,26.50
2018-07-28T06:33:41.851Z,26.60
2018-07-28T06:36:10.284Z,26.70
2018-07-28T06:38:38.690Z,26.70
2018-07-28T06:41:07.262Z,26.70
2018-07-28T06:43:35.791Z,26.60
2018-07-28T06:46:04.212Z,26.60
2018-07-28T06:48:32.580Z,26.60
2018-07-28T06:51:01.064Z,26.60
2018-07-28T06:53:41.528Z,26.60
2018-07-28T06:56:09.962Z,26.60
2018-07-28T06:58:38.513Z,26.60
2018-07-28T07:01:06.877Z,26.60
2018-07-28T07:03:35.289Z,26.60
2018-07-28T07:06:03.892Z,26.60
2018-07-28T07:08:32.464Z,26.60
2018-07-28T07:11:00.848Z,26.60
2018-07-28T07:13:29.264Z,26.50
2018-07-28T07:15:57.748Z,26.40
2018-07-28T07:18:26.372Z,26.30
2018-07-28T07:20:54.949Z,26.20
2018-07-28T07:23:23.364Z,26.10
2018-07-28T07:25:51.787Z,26.00
2018-07-28T07:28:20.160Z,26.00
2018-07-28T07:30:48.708Z,26.00
2018-07-28T07:33:17.093Z,25.90
2018-07-28T07:38:13.844Z,25.90
2018-07-28T07:40:42.316Z,26.00
2018-07-28T07:43:10.758Z,26.10
2018-07-28T07:45:39.106Z,26.20
2018-07-28T07:48:07.553Z,26.30
2018-07-28T07:50:36.104Z,26.30
2018-07-28T07:53:04.496Z,26.30
2018-07-28T07:55:33.013Z,26.20
2018-07-28T07:58:02.149Z,26.00
2018-07-28T08:00:30.520Z,25.80
2018-07-28T08:02:58.895Z,25.60
2018-07-28T08:05:27.437Z,25.40
2018-07-28T08:07:55.902Z,25.20
2018-07-28T08:10:24.296Z,25.00
2018-07-28T08:12:52.663Z,24.90
2018-07-28T08:15:21.140Z,24.80
2018-07-28T08:17:49.614Z,24.70
2018-07-28T08:20:18.069Z,24.60
2018-07-28T08:22:46.540Z,24.50
2018-07-28T08:25:14.892Z,24.40
2018-07-28T08:27:43.562Z,24.40
2018-07-28T08:30:12.440Z,24.30
2018-07-28T08:32:41.159Z,24.30
2018-07-28T08:35:10.284Z,24.30
2018-07-28T08:37:38.864Z,24.40
2018-07-28T08:40:07.376Z,24.40
2018-07-28T08:42:35.764Z,24.50
2018-07-28T08:45:04.794Z,24.50
2018-07-28T08:47:33.144Z,24.60
2018-07-28T08:50:01.794Z,24.60
2018-07-28T08:52:30.262Z,24.70
2018-07-28T08:54:58.864Z,24.90
2018-07-28T08:57:27.336Z,25.10
2018-07-28T08:59:55.677Z,25.30
2018-07-28T09:02:24.183Z,25.40
2018-07-28T09:04:52.510Z,25.60
2018-07-28T09:07:21.009Z,25.70
2018-07-28T09:09:49.350Z,25.90
2018-07-28T09:12:17.729Z,26.00
2018-07-28T09:14:46.140Z,26.20
2018-07-28T09:17:14.499Z,26.20
2018-07-28T09:19:42.934Z,26.30
2018-07-28T09:24:40.408Z,26.60
2018-07-28T09:27:08.757Z,26.80
2018-07-28T09:29:37.679Z,27.00
2018-07-28T09:32:06.352Z,27.10
2018-07-28T09:34:34.832Z,27.10
2018-07-28T09:37:03.240Z,27.20
2018-07-28T09:39:31.584Z,27.30
2018-07-28T09:44:28.833Z,27.30
2018-07-28T09:46:57.239Z,27.40
2018-07-28T09:49:26.305Z,27.60
2018-07-28T09:51:55.326Z,27.70
2018-07-28T09:54:23.980Z,27.80
2018-07-28T09:56:52.628Z,27.90
2018-07-28T09:59:20.971Z,28.00
2018-07-28T10:04:23.148Z,28.10
2018-07-28T10:06:51.555Z,28.10
2018-07-28T10:09:19.974Z,28.10
2018-07-28T10:11:48.478Z,28.20
2018-07-28T10:14:16.987Z,28.30
2018-07-28T10:16:45.373Z,28.40
2018-07-28T10:19:14.213Z,28.40
2018-07-28T10:21:43.381Z,28.30
2018-07-28T10:24:12.414Z,28.30
2018-07-28T10:26:40.809Z,28.20
2018-07-28T10:29:09.192Z,28.20
2018-07-28T10:31:37.572Z,28.20
2018-07-28T10:34:07.008Z,28.30
2018-07-28T10:36:35.409Z,28.30
2018-07-28T10:39:06.344Z,28.40
2018-07-28T10:41:34.651Z,28.50
2018-07-28T10:44:03.043Z,28.60
2018-07-28T10:46:31.497Z,28.70
2018-07-28T10:48:59.877Z,28.80
2018-07-28T10:51:28.281Z,28.90
2018-07-28T10:53:56.659Z,29.10
2018-07-28T10:56:25.065Z,29.20
2018-07-28T10:58:53.552Z,29.30
2018-07-28T11:01:21.924Z,29.50
2018-07-28T11:03:50.296Z,29.60
2018-07-28T11:06:18.663Z,29.70
2018-07-28T11:08:47.047Z,29.60
2018-07-28T11:11:16.367Z,29.60
2018-07-28T11:13:44.846Z,29.50
2018-07-28T11:16:13.231Z,29.50
2018-07-28T11:18:41.599Z,29.50
2018-07-28T11:21:09.968Z,29.40
2018-07-28T11:24:01.016Z,29.50
2018-07-28T11:26:29.540Z,29.50
2018-07-28T11:28:58.117Z,29.50
2018-07-28T11:31:37.738Z,29.60
2018-07-28T11:34:17.401Z,29.70
2018-07-28T11:36:57.247Z,29.80
2018-07-28T11:39:36.970Z,29.90
2018-07-28T11:42:16.822Z,29.90
2018-07-28T11:45:03.509Z,29.90
2018-07-28T11:47:31.881Z,29.90
2018-07-28T11:50:00.262Z,29.80
2018-07-28T11:52:28.721Z,29.80
2018-07-28T11:54:57.163Z,29.70
2018-07-28T11:57:25.756Z,29.60
2018-07-28T11:59:54.497Z,29.70
2018-07-28T12:02:22.864Z,29.80
2018-07-28T12:04:51.437Z,29.90
2018-07-28T12:07:19.792Z,30.10
2018-07-28T12:09:48.388Z,30.30
2018-07-28T12:12:17.175Z,30.40
2018-07-28T12:14:45.565Z,30.40
2018-07-28T12:17:13.907Z,30.50
2018-07-28T12:22:10.352Z,30.20
2018-07-28T12:24:38.808Z,30.00
2018-07-28T12:27:07.177Z,29.90
2018-07-28T12:29:35.556Z,29.70
2018-07-28T12:32:03.953Z,29.60
2018-07-28T12:34:32.926Z,29.50
2018-07-28T12:37:01.444Z,29.50
2018-07-28T12:39:29.837Z,29.40
2018-07-28T12:41:58.260Z,29.30
2018-07-28T12:44:26.679Z,29.30
2018-07-28T12:46:55.129Z,29.30
2018-07-28T12:49:23.636Z,29.20
2018-07-28T12:51:52.048Z,29.20
2018-07-28T12:54:20.427Z,29.10
2018-07-28T12:56:48.822Z,29.10
2018-07-28T12:59:17.182Z,29.10
2018-07-28T13:01:45.516Z,29.10
2018-07-28T13:04:14.086Z,29.10
2018-07-28T13:06:42.588Z,29.00
2018-07-28T13:09:13.120Z,28.80
2018-07-28T13:11:42.615Z,28.30
2018-07-28T13:14:11.421Z,27.80
2018-07-28T13:16:40.311Z,27.40
2018-07-28T13:19:09.003Z,27.10
2018-07-28T13:21:37.487Z,26.80
2018-07-28T13:24:06.255Z,26.60
2018-07-28T13:26:35.247Z,26.70
2018-07-28T13:29:04.974Z,26.80
2018-07-28T13:31:33.856Z,26.90
2018-07-28T13:34:02.418Z,27.00
2018-07-28T13:36:31.226Z,26.90
2018-07-28T13:38:59.953Z,26.80
2018-07-28T13:41:28.664Z,26.70
2018-07-28T13:43:57.420Z,26.80
2018-07-28T13:46:26.970Z,26.80
2018-07-28T13:48:55.837Z,26.90
2018-07-28T13:51:24.510Z,27.00
2018-07-28T13:53:53.069Z,27.10
2018-07-28T13:56:21.483Z,27.10
2018-07-28T13:58:49.985Z,27.10
2018-07-28T14:01:18.335Z,27.00
2018-07-28T14:03:46.738Z,26.90
2018-07-28T14:06:15.153Z,26.80
2018-07-28T14:08:43.535Z,26.80
2018-07-28T14:11:11.908Z,26.80
2018-07-28T14:13:40.511Z,26.80
2018-07-28T14:16:09.335Z,27.00
2018-07-28T14:18:37.856Z,27.00
2018-07-28T14:21:06.304Z,27.20
2018-07-28T14:23:34.880Z,27.30
2018-07-28T14:26:04.220Z,27.50
2018-07-28T14:28:32.868Z,27.60
2018-07-28T14:31:01.244Z,27.60
2018-07-28T14:33:29.627Z,27.60
2018-07-28T14:35:58.020Z,27.70
2018-07-28T14:38:26.504Z,27.70
2018-07-28T14:40:54.970Z,27.80
2018-07-28T14:43:23.411Z,27.80
2018-07-28T14:45:52.532Z,27.90
2018-07-28T14:48:20.889Z,27.90
2018-07-28T14:50:49.259Z,28.00
2018-07-28T14:53:17.625Z,28.00
2018-07-28T14:55:46.036Z,28.00
2018-07-28T14:58:14.420Z,28.00
2018-07-28T15:00:42.903Z,28.00
2018-07-28T15:03:11.300Z,28.00
2018-07-28T15:05:39.637Z,28.00
2018-07-28T15:08:07.990Z,28.10
2018-07-28T15:10:36.418Z,28.10
2018-07-28T15:13:04.784Z,28.20
2018-07-28T15:15:33.183Z,28.20
2018-07-28T15:18:01.716Z,28.40
2018-07-28T15:20:30.149Z,28.50
2018-07-28T15:22:58.606Z,28.60
2018-07-28T15:25:30.264Z,28.60
2018-07-28T15:28:01.027Z,28.70
2018-07-28T15:30:29.886Z,28.70
2018-07-28T15:33:00.325Z,28.60
2018-07-28T15:35:28.754Z,28.70
2018-07-28T15:37:57.400Z,28.70
2018-07-28T15:40:25.988Z,28.70
2018-07-28T15:42:54.425Z,28.70
2018-07-28T15:45:23.059Z,28.70
2018-07-28T15:47:51.599Z,28.70
2018-07-28T15:50:19.981Z,28.70
2018-07-28T15:52:48.453Z,28.60
2018-07-28T15:55:16.791Z,28.60
2018-07-28T15:57:45.235Z,28.50
2018-07-28T16:00:15.323Z,28.50
2018-07-28T16:02:43.715Z,28.50
2018-07-28T16:05:12.092Z,28.50
2018-07-28T16:07:40.408Z,28.50
2018-07-28T16:10:08.792Z,28.50
2018-07-28T16:12:37.162Z,28.50
2018-07-28T16:15:06.344Z,28.60
2018-07-28T16:17:34.755Z,28.60
2018-07-28T16:20:03.517Z,28.60
2018-07-28T16:22:31.909Z,28.60
2018-07-28T16:25:00.571Z,28.60
2018-07-28T16:27:28.998Z,28.50
2018-07-28T16:29:57.540Z,28.50
2018-07-28T16:32:26.123Z,28.50
2018-07-28T16:34:54.667Z,28.50
2018-07-28T16:37:23.219Z,28.50
2018-07-28T16:39:51.996Z,28.60
2018-07-28T16:42:20.449Z,28.60
2018-07-28T16:44:49.147Z,28.60
2018-07-28T16:47:17.492Z,28.60
2018-07-28T16:49:45.920Z,28.70
2018-07-28T16:52:14.887Z,28.70
2018-07-28T16:54:43.393Z,28.70
2018-07-28T16:57:12.700Z,28.70
2018-07-28T16:59:41.409Z,28.70
2018-07-28T17:02:09.876Z,28.60
2018-07-28T17:04:38.288Z,28.50
2018-07-28T17:07:06.720Z,28.40
2018-07-28T17:09:35.101Z,28.30
2018-07-28T17:12:03.705Z,28.30
2018-07-28T17:17:00.302Z,28.30
2018-07-28T17:24:25.124Z,28.20
2018-07-28T17:26:53.506Z,28.20
2018-07-28T17:29:21.986Z,28.20
2018-07-28T17:31:50.374Z,28.20
2018-07-28T17:34:18.853Z,28.20
2018-07-28T17:36:48.058Z,28.20
2018-07-28T17:39:16.428Z,28.20
2018-07-28T17:41:44.894Z,28.10
2018-07-28T17:44:13.268Z,28.10
2018-07-28T17:46:41.724Z,28.10
2018-07-28T17:49:10.125Z,28.10
2018-07-28T17:51:38.547Z,28.10
2018-07-28T17:54:06.932Z,28.20
2018-07-28T17:56:35.425Z,28.20
2018-07-28T17:59:03.994Z,28.20
2018-07-28T18:01:32.389Z,28.10
2018-07-28T18:04:00.812Z,28.10
2018-07-28T18:06:29.250Z,28.10
2018-07-28T18:08:57.732Z,28.00
2018-07-28T18:11:26.579Z,28.00
2018-07-28T18:13:54.941Z,27.90
2018-07-28T18:16:23.365Z,27.90
2018-07-28T18:18:51.825Z,27.80
2018-07-28T18:23:48.414Z,27.70
2018-07-28T18:26:16.973Z,27.60
2018-07-28T18:28:45.332Z,27.60
2018-07-28T18:31:13.726Z,27.50
2018-07-28T18:33:42.155Z,27.50
2018-07-28T18:36:10.656Z,27.50
2018-07-28T18:38:39.141Z,27.40
2018-07-28T18:41:07.550Z,27.40
2018-07-28T18:43:35.929Z,27.40
2018-07-28T18:46:04.701Z,27.40
2018-07-28T18:48:33.092Z,27.40
2018-07-28T18:51:01.529Z,27.30
2018-07-28T18:53:30.044Z,27.30
2018-07-28T18:55:58.470Z,27.20
2018-07-28T18:58:26.872Z,27.20
2018-07-28T19:00:55.320Z,27.10
2018-07-28T19:03:23.860Z,27.10
2018-07-28T19:05:52.199Z,27.10
2018-07-28T19:08:20.846Z,27.00
2018-07-28T19:10:50.188Z,27.00
2018-07-28T19:13:24.041Z,27.00
2018-07-28T19:15:52.409Z,26.90
2018-07-28T19:18:26.392Z,26.80
2018-07-28T19:20:54.894Z,26.80
2018-07-28T19:23:28.582Z,26.80
2018-07-28T19:25:57.244Z,26.70
2018-07-28T19:28:31.036Z,26.70
2018-07-28T19:30:59.483Z,26.70
2018-07-28T19:33:27.923Z,26.60
2018-07-28T19:36:01.710Z,26.60
2018-07-28T19:38:30.101Z,26.50
2018-07-28T19:41:00.204Z,26.50
2018-07-28T19:43:28.598Z,26.50
2018-07-28T19:45:57.081Z,26.50
2018-07-28T19:48:25.515Z,26.40
2018-07-28T19:50:53.962Z,26.40
2018-07-28T19:53:22.363Z,26.30
2018-07-28T19:55:50.753Z,26.30
2018-07-28T19:58:19.277Z,26.20
2018-07-28T20:00:47.795Z,26.20
2018-07-28T20:03:16.287Z,26.20
2018-07-28T20:05:44.632Z,26.10
2018-07-28T20:08:13.060Z,26.00
2018-07-28T20:10:41.520Z,26.00
2018-07-28T20:13:09.973Z,25.90
2018-07-28T20:15:38.388Z,25.90
2018-07-28T20:18:07.213Z,25.90
2018-07-28T20:20:35.660Z,25.80
2018-07-28T20:23:04.121Z,25.80
2018-07-28T20:25:32.601Z,25.70
2018-07-28T20:28:01.004Z,25.70
2018-07-28T20:30:29.592Z,25.70
2018-07-28T20:32:58.938Z,25.70
2018-07-28T20:35:27.478Z,25.70
2018-07-28T20:37:55.998Z,25.60
2018-07-28T20:40:24.571Z,25.60
2018-07-28T20:42:53.014Z,25.50
2018-07-28T20:45:21.488Z,25.50
2018-07-28T20:47:50.210Z,25.50
2018-07-28T20:50:18.656Z,25.50
2018-07-28T20:52:47.276Z,25.40
2018-07-28T20:55:15.736Z,25.40
2018-07-28T20:57:44.241Z,25.40
2018-07-28T21:00:12.690Z,25.40
2018-07-28T21:02:41.065Z,25.40
2018-07-28T21:05:09.453Z,25.40
2018-07-28T21:07:37.868Z,25.40
2018-07-28T21:10:06.628Z,25.40
2018-07-28T21:12:35.829Z,25.40
2018-07-28T21:15:04.765Z,25.40
2018-07-28T21:17:33.268Z,25.40
2018-07-28T21:20:02.439Z,25.30
2018-07-28T21:22:31.977Z,25.30
2018-07-28T21:25:00.603Z,25.20
2018-07-28T21:27:29.629Z,25.10
2018-07-28T21:29:58.558Z,25.10
2018-07-28T21:32:27.458Z,25.00
2018-07-28T21:34:56.140Z,25.00
2018-07-28T21:42:23.747Z,24.90
2018-07-28T21:44:53.188Z,24.80
2018-07-28T21:49:50.597Z,24.70
2018-07-28T21:52:20.397Z,24.70
2018-07-28T21:54:50.294Z,24.60
2018-07-28T21:57:19.158Z,24.60
2018-07-28T21:59:48.006Z,24.50
2018-07-28T22:02:16.733Z,24.40
2018-07-28T22:04:45.937Z,24.40
2018-07-28T22:07:15.528Z,24.30
2018-07-28T22:09:43.882Z,24.20
2018-07-28T22:14:40.471Z,24.00
2018-07-28T22:17:09.096Z,24.00
2018-07-28T22:19:37.502Z,23.90
2018-07-28T22:22:05.914Z,23.90
2018-07-28T22:24:34.252Z,23.90
2018-07-28T22:27:02.672Z,23.90
2018-07-28T22:29:31.092Z,23.90
2018-07-28T22:31:59.587Z,24.00
2018-07-28T22:34:28.092Z,24.00
2018-07-28T22:36:56.603Z,24.10
2018-07-28T22:39:25.059Z,24.10
2018-07-28T22:41:53.823Z,24.10
2018-07-28T22:44:22.330Z,24.10
2018-07-28T22:46:51.898Z,24.10
2018-07-28T22:51:51.784Z,24.20
2018-07-28T22:54:20.211Z,24.20
2018-07-28T22:56:48.784Z,24.20
2018-07-28T22:59:17.172Z,24.20
2018-07-28T23:01:45.759Z,24.20
2018-07-28T23:04:14.239Z,24.20
2018-07-28T23:06:42.887Z,24.20
2018-07-28T23:09:12.839Z,24.20
2018-07-28T23:11:41.268Z,24.20
2018-07-28T23:14:10.305Z,24.20
2018-07-28T23:16:38.776Z,24.20
2018-07-28T23:19:07.315Z,24.10
2018-07-28T23:21:35.761Z,24.10
2018-07-28T23:24:04.281Z,24.10
2018-07-28T23:26:32.701Z,24.00
2018-07-28T23:29:01.246Z,24.00
2018-07-28T23:31:32.910Z,23.90
2018-07-28T23:34:01.358Z,23.90
2018-07-28T23:36:29.756Z,23.80
2018-07-28T23:41:26.829Z,23.80
2018-07-28T23:43:55.332Z,23.80
2018-07-28T23:46:23.919Z,23.70
2018-07-28T23:48:52.354Z,23.60
2018-07-28T23:51:21.048Z,23.50
2018-07-28T23:53:49.504Z,23.40
2018-07-28T23:56:17.939Z,23.30
2018-07-28T23:58:46.330Z,23.30
